sensor_id;sensor_type;location;lat;lon;timestamp;temperature;humidity
15765;DHT22;7983;50.744;7.086;2023-07-02T00:02:02;18.30;99.90
15765;DHT22;7983;50.744;7.086;2023-07-02T00:04:28;18.30;99.90
15765;DHT22;7983;50.744;7.086;2023-07-02T00:06:56;18.30;99.90
15765;DHT22;7983;50.744;7.086;2023-07-02T00:09:21;18.30;99.90
15765;DHT22;7983;50.744;7.086;2023-07-02T00:11:47;18.30;99.90
15765;DHT22;7983;50.744;7.086;2023-07-02T00:14:17;18.30;99.90
15765;DHT22;7983;50.744;7.086;2023-07-02T00:16:45;18.20;99.90
15765;DHT22;7983;50.744;7.086;2023-07-02T00:19:14;18.20;99.90
15765;DHT22;7983;50.744;7.086;2023-07-02T00:21:40;18.20;99.90
15765;DHT22;7983;50.744;7.086;2023-07-02T00:24:07;18.20;99.90
15765;DHT22;7983;50.744;7.086;2023-07-02T00:26:35;18.20;99.90
15765;DHT22;7983;50.744;7.086;2023-07-02T00:29:01;18.20;99.90
15765;DHT22;7983;50.744;7.086;2023-07-02T00:31:29;18.20;99.90
15765;DHT22;7983;50.744;7.086;2023-07-02T00:33:54;18.20;99.90
15765;DHT22;7983;50.744;7.086;2023-07-02T00:36:20;18.20;99.90
15765;DHT22;7983;50.744;7.086;2023-07-02T00:38:49;18.20;99.90
15765;DHT22;7983;50.744;7.086;2023-07-02T00:41:17;18.20;99.90
15765;DHT22;7983;50.744;7.086;2023-07-02T00:43:43;18.20;99.90
15765;DHT22;7983;50.744;7.086;2023-07-02T00:46:18;18.10;99.90
15765;DHT22;7983;50.744;7.086;2023-07-02T00:51:18;18.10;99.90
15765;DHT22;7983;50.744;7.086;2023-07-02T00:53:48;18.10;99.90
15765;DHT22;7983;50.744;7.086;2023-07-02T00:56:14;18.10;99.90
15765;DHT22;7983;50.744;7.086;2023-07-02T00:58:45;18.10;99.90
15765;DHT22;7983;50.744;7.086;2023-07-02T01:01:20;18.10;99.90
15765;DHT22;7983;50.744;7.086;2023-07-02T01:04:04;18.10;99.90
15765;DHT22;7983;50.744;7.086;2023-07-02T01:06:35;18.10;99.90
15765;DHT22;7983;50.744;7.086;2023-07-02T01:09:03;18.10;99.90
15765;DHT22;7983;50.744;7.086;2023-07-02T01:11:52;18.10;99.90
15765;DHT22;7983;50.744;7.086;2023-07-02T01:14:36;18.00;99.90
15765;DHT22;7983;50.744;7.086;2023-07-02T01:17:03;18.00;99.90
15765;DHT22;7983;50.744;7.086;2023-07-02T01:22:11;17.90;99.90
15765;DHT22;7983;50.744;7.086;2023-07-02T01:24:41;17.90;99.90
15765;DHT22;7983;50.744;7.086;2023-07-02T01:27:10;17.80;99.90
15765;DHT22;7983;50.744;7.086;2023-07-02T01:29:35;17.80;99.90
15765;DHT22;7983;50.744;7.086;2023-07-02T01:32:02;17.70;99.90
15765;DHT22;7983;50.744;7.086;2023-07-02T01:34:30;17.70;99.90
15765;DHT22;7983;50.744;7.086;2023-07-02T01:36:56;17.70;99.90
15765;DHT22;7983;50.744;7.086;2023-07-02T01:39:24;17.60;99.90
15765;DHT22;7983;50.744;7.086;2023-07-02T01:42:07;17.50;99.90
15765;DHT22;7983;50.744;7.086;2023-07-02T01:44:36;17.60;99.90
15765;DHT22;7983;50.744;7.086;2023-07-02T01:47:05;17.40;99.90
15765;DHT22;7983;50.744;7.086;2023-07-02T01:49:33;17.40;99.90
15765;DHT22;7983;50.744;7.086;2023-07-02T01:51:59;17.40;99.90
15765;DHT22;7983;50.744;7.086;2023-07-02T01:54:26;17.30;99.90
15765;DHT22;7983;50.744;7.086;2023-07-02T01:56:55;17.30;99.90
15765;DHT22;7983;50.744;7.086;2023-07-02T01:59:21;17.30;99.90
15765;DHT22;7983;50.744;7.086;2023-07-02T02:01:50;17.20;99.90
15765;DHT22;7983;50.744;7.086;2023-07-02T02:04:16;17.10;99.90
15765;DHT22;7983;50.744;7.086;2023-07-02T02:06:44;17.20;99.90
15765;DHT22;7983;50.744;7.086;2023-07-02T02:09:10;17.20;99.90
15765;DHT22;7983;50.744;7.086;2023-07-02T02:11:43;17.20;99.90
15765;DHT22;7983;50.744;7.086;2023-07-02T02:14:11;17.10;99.90
15765;DHT22;7983;50.744;7.086;2023-07-02T02:16:37;17.10;99.90
15765;DHT22;7983;50.744;7.086;2023-07-02T02:19:03;17.10;99.90
15765;DHT22;7983;50.744;7.086;2023-07-02T02:21:29;17.20;99.90
15765;DHT22;7983;50.744;7.086;2023-07-02T02:23:55;17.20;99.90
15765;DHT22;7983;50.744;7.086;2023-07-02T02:26:23;17.20;99.90
15765;DHT22;7983;50.744;7.086;2023-07-02T02:28:51;17.20;99.90
15765;DHT22;7983;50.744;7.086;2023-07-02T02:31:16;17.20;99.90
15765;DHT22;7983;50.744;7.086;2023-07-02T02:33:45;17.20;99.90
15765;DHT22;7983;50.744;7.086;2023-07-02T02:36:11;17.20;99.90
15765;DHT22;7983;50.744;7.086;2023-07-02T02:38:39;17.20;99.90
15765;DHT22;7983;50.744;7.086;2023-07-02T02:41:04;17.20;99.90
15765;DHT22;7983;50.744;7.086;2023-07-02T02:43:33;17.20;99.90
15765;DHT22;7983;50.744;7.086;2023-07-02T02:45:59;17.20;99.90
15765;DHT22;7983;50.744;7.086;2023-07-02T02:48:29;17.30;99.90
15765;DHT22;7983;50.744;7.086;2023-07-02T02:50:55;17.30;99.90
15765;DHT22;7983;50.744;7.086;2023-07-02T02:53:20;17.30;99.90
15765;DHT22;7983;50.744;7.086;2023-07-02T02:55:46;17.30;99.90
15765;DHT22;7983;50.744;7.086;2023-07-02T02:58:12;17.30;99.90
15765;DHT22;7983;50.744;7.086;2023-07-02T03:00:37;17.30;99.90
15765;DHT22;7983;50.744;7.086;2023-07-02T03:03:07;17.30;99.90
15765;DHT22;7983;50.744;7.086;2023-07-02T03:05:32;17.40;99.90
15765;DHT22;7983;50.744;7.086;2023-07-02T03:07:59;17.40;99.90
15765;DHT22;7983;50.744;7.086;2023-07-02T03:10:27;17.40;99.90
15765;DHT22;7983;50.744;7.086;2023-07-02T03:12:53;17.40;99.90
15765;DHT22;7983;50.744;7.086;2023-07-02T03:15:19;17.40;99.90
15765;DHT22;7983;50.744;7.086;2023-07-02T03:17:49;17.40;99.90
15765;DHT22;7983;50.744;7.086;2023-07-02T03:20:15;17.40;99.90
15765;DHT22;7983;50.744;7.086;2023-07-02T03:22:42;17.40;99.90
15765;DHT22;7983;50.744;7.086;2023-07-02T03:25:10;17.50;99.90
15765;DHT22;7983;50.744;7.086;2023-07-02T03:27:35;17.40;99.90
15765;DHT22;7983;50.744;7.086;2023-07-02T03:30:01;17.50;99.90
15765;DHT22;7983;50.744;7.086;2023-07-02T03:32:29;17.50;99.90
15765;DHT22;7983;50.744;7.086;2023-07-02T03:34:56;17.50;99.90
15765;DHT22;7983;50.744;7.086;2023-07-02T03:37:24;17.50;99.90
15765;DHT22;7983;50.744;7.086;2023-07-02T03:39:50;17.50;99.90
15765;DHT22;7983;50.744;7.086;2023-07-02T03:42:18;17.50;99.90
15765;DHT22;7983;50.744;7.086;2023-07-02T03:44:44;17.50;99.90
15765;DHT22;7983;50.744;7.086;2023-07-02T03:47:09;17.50;99.90
15765;DHT22;7983;50.744;7.086;2023-07-02T03:49:37;17.50;99.90
15765;DHT22;7983;50.744;7.086;2023-07-02T03:52:03;17.50;99.90
15765;DHT22;7983;50.744;7.086;2023-07-02T03:54:29;17.50;99.90
15765;DHT22;7983;50.744;7.086;2023-07-02T03:56:57;17.40;99.90
15765;DHT22;7983;50.744;7.086;2023-07-02T03:59:22;17.40;99.90
15765;DHT22;7983;50.744;7.086;2023-07-02T04:01:48;17.40;99.90
15765;DHT22;7983;50.744;7.086;2023-07-02T04:04:16;17.40;99.90
15765;DHT22;7983;50.744;7.086;2023-07-02T04:06:44;17.40;99.90
15765;DHT22;7983;50.744;7.086;2023-07-02T04:09:09;17.40;99.90
15765;DHT22;7983;50.744;7.086;2023-07-02T04:11:35;17.40;99.90
15765;DHT22;7983;50.744;7.086;2023-07-02T04:14:01;17.40;99.90
15765;DHT22;7983;50.744;7.086;2023-07-02T04:16:29;17.40;99.90
15765;DHT22;7983;50.744;7.086;2023-07-02T04:18:54;17.40;99.90
15765;DHT22;7983;50.744;7.086;2023-07-02T04:21:20;17.40;99.90
15765;DHT22;7983;50.744;7.086;2023-07-02T04:23:48;17.40;99.90
15765;DHT22;7983;50.744;7.086;2023-07-02T04:26:13;17.40;99.90
15765;DHT22;7983;50.744;7.086;2023-07-02T04:28:39;17.40;99.90
15765;DHT22;7983;50.744;7.086;2023-07-02T04:31:04;17.40;99.90
15765;DHT22;7983;50.744;7.086;2023-07-02T04:33:32;17.40;99.90
15765;DHT22;7983;50.744;7.086;2023-07-02T04:36:02;17.40;99.90
15765;DHT22;7983;50.744;7.086;2023-07-02T04:38:30;17.40;99.90
15765;DHT22;7983;50.744;7.086;2023-07-02T04:40:58;17.50;99.90
15765;DHT22;7983;50.744;7.086;2023-07-02T04:43:27;17.50;99.90
15765;DHT22;7983;50.744;7.086;2023-07-02T04:45:55;17.50;99.90
15765;DHT22;7983;50.744;7.086;2023-07-02T04:48:23;17.50;99.90
15765;DHT22;7983;50.744;7.086;2023-07-02T04:50:51;17.50;99.90
15765;DHT22;7983;50.744;7.086;2023-07-02T04:53:16;17.50;99.90
15765;DHT22;7983;50.744;7.086;2023-07-02T04:55:43;17.50;99.90
15765;DHT22;7983;50.744;7.086;2023-07-02T04:58:11;17.60;99.90
15765;DHT22;7983;50.744;7.086;2023-07-02T05:00:39;17.60;99.90
15765;DHT22;7983;50.744;7.086;2023-07-02T05:03:09;17.60;99.90
15765;DHT22;7983;50.744;7.086;2023-07-02T05:05:34;17.60;99.90
15765;DHT22;7983;50.744;7.086;2023-07-02T05:08:00;17.60;99.90
15765;DHT22;7983;50.744;7.086;2023-07-02T05:10:28;17.60;99.90
15765;DHT22;7983;50.744;7.086;2023-07-02T05:12:54;17.60;99.90
15765;DHT22;7983;50.744;7.086;2023-07-02T05:15:19;17.60;99.90
15765;DHT22;7983;50.744;7.086;2023-07-02T05:17:47;17.60;99.90
15765;DHT22;7983;50.744;7.086;2023-07-02T05:20:15;17.60;99.90
15765;DHT22;7983;50.744;7.086;2023-07-02T05:22:43;17.60;99.90
15765;DHT22;7983;50.744;7.086;2023-07-02T05:25:11;17.70;99.90
15765;DHT22;7983;50.744;7.086;2023-07-02T05:27:37;17.70;99.90
15765;DHT22;7983;50.744;7.086;2023-07-02T05:30:03;17.70;99.90
15765;DHT22;7983;50.744;7.086;2023-07-02T05:32:29;17.70;99.90
15765;DHT22;7983;50.744;7.086;2023-07-02T05:34:54;17.70;99.90
15765;DHT22;7983;50.744;7.086;2023-07-02T05:37:20;17.80;99.90
15765;DHT22;7983;50.744;7.086;2023-07-02T05:39:47;17.80;99.90
15765;DHT22;7983;50.744;7.086;2023-07-02T05:42:12;17.80;99.90
15765;DHT22;7983;50.744;7.086;2023-07-02T05:44:40;17.90;99.90
15765;DHT22;7983;50.744;7.086;2023-07-02T05:47:08;17.90;99.90
15765;DHT22;7983;50.744;7.086;2023-07-02T05:49:36;17.90;99.90
15765;DHT22;7983;50.744;7.086;2023-07-02T05:52:02;18.00;99.90
15765;DHT22;7983;50.744;7.086;2023-07-02T05:54:27;18.00;99.90
15765;DHT22;7983;50.744;7.086;2023-07-02T05:56:53;18.00;99.90
15765;DHT22;7983;50.744;7.086;2023-07-02T05:59:19;18.00;99.90
15765;DHT22;7983;50.744;7.086;2023-07-02T06:01:44;18.10;99.90
15765;DHT22;7983;50.744;7.086;2023-07-02T06:04:10;18.10;99.90
15765;DHT22;7983;50.744;7.086;2023-07-02T06:06:36;18.10;99.90
15765;DHT22;7983;50.744;7.086;2023-07-02T06:09:01;18.20;99.90
15765;DHT22;7983;50.744;7.086;2023-07-02T06:11:28;18.20;99.90
15765;DHT22;7983;50.744;7.086;2023-07-02T06:13:56;18.30;99.90
15765;DHT22;7983;50.744;7.086;2023-07-02T06:16:24;18.30;99.90
15765;DHT22;7983;50.744;7.086;2023-07-02T06:18:55;18.30;99.90
15765;DHT22;7983;50.744;7.086;2023-07-02T06:21:22;18.30;99.90
15765;DHT22;7983;50.744;7.086;2023-07-02T06:23:50;18.40;99.90
15765;DHT22;7983;50.744;7.086;2023-07-02T06:26:15;18.40;99.90
15765;DHT22;7983;50.744;7.086;2023-07-02T06:28:43;18.50;99.90
15765;DHT22;7983;50.744;7.086;2023-07-02T06:31:10;18.50;99.90
15765;DHT22;7983;50.744;7.086;2023-07-02T06:33:41;18.50;99.90
15765;DHT22;7983;50.744;7.086;2023-07-02T06:36:08;18.50;99.90
15765;DHT22;7983;50.744;7.086;2023-07-02T06:38:33;18.60;99.90
15765;DHT22;7983;50.744;7.086;2023-07-02T06:40:59;18.70;99.90
15765;DHT22;7983;50.744;7.086;2023-07-02T06:43:24;18.80;99.90
15765;DHT22;7983;50.744;7.086;2023-07-02T06:45:50;18.80;99.90
15765;DHT22;7983;50.744;7.086;2023-07-02T06:48:16;18.90;99.90
15765;DHT22;7983;50.744;7.086;2023-07-02T06:50:44;19.00;99.90
15765;DHT22;7983;50.744;7.086;2023-07-02T06:53:10;19.00;99.90
15765;DHT22;7983;50.744;7.086;2023-07-02T06:55:36;19.10;99.90
15765;DHT22;7983;50.744;7.086;2023-07-02T06:58:02;19.10;99.90
15765;DHT22;7983;50.744;7.086;2023-07-02T07:00:31;19.20;99.90
15765;DHT22;7983;50.744;7.086;2023-07-02T07:03:00;19.20;99.90
15765;DHT22;7983;50.744;7.086;2023-07-02T07:05:27;19.30;99.90
15765;DHT22;7983;50.744;7.086;2023-07-02T07:07:53;19.30;99.90
15765;DHT22;7983;50.744;7.086;2023-07-02T07:10:19;19.30;99.90
15765;DHT22;7983;50.744;7.086;2023-07-02T07:12:47;19.40;99.90
15765;DHT22;7983;50.744;7.086;2023-07-02T07:15:12;19.50;99.90
15765;DHT22;7983;50.744;7.086;2023-07-02T07:17:40;19.50;99.90
15765;DHT22;7983;50.744;7.086;2023-07-02T07:20:06;19.50;99.90
15765;DHT22;7983;50.744;7.086;2023-07-02T07:22:33;19.50;99.90
15765;DHT22;7983;50.744;7.086;2023-07-02T07:24:59;19.50;99.90
15765;DHT22;7983;50.744;7.086;2023-07-02T07:27:28;19.60;99.90
15765;DHT22;7983;50.744;7.086;2023-07-02T07:29:53;19.60;99.90
15765;DHT22;7983;50.744;7.086;2023-07-02T07:32:20;19.60;99.90
15765;DHT22;7983;50.744;7.086;2023-07-02T07:34:51;19.70;99.90
15765;DHT22;7983;50.744;7.086;2023-07-02T07:37:17;19.80;99.90
15765;DHT22;7983;50.744;7.086;2023-07-02T07:39:47;19.80;99.90
15765;DHT22;7983;50.744;7.086;2023-07-02T07:42:16;19.90;99.90
15765;DHT22;7983;50.744;7.086;2023-07-02T07:44:44;19.90;99.90
15765;DHT22;7983;50.744;7.086;2023-07-02T07:47:09;20.00;99.90
15765;DHT22;7983;50.744;7.086;2023-07-02T07:49:35;20.10;99.90
15765;DHT22;7983;50.744;7.086;2023-07-02T07:52:03;20.10;99.90
15765;DHT22;7983;50.744;7.086;2023-07-02T07:54:32;20.20;99.90
15765;DHT22;7983;50.744;7.086;2023-07-02T07:57:01;20.30;99.90
15765;DHT22;7983;50.744;7.086;2023-07-02T07:59:26;20.30;99.90
15765;DHT22;7983;50.744;7.086;2023-07-02T08:01:52;20.40;99.90
15765;DHT22;7983;50.744;7.086;2023-07-02T08:04:17;20.50;99.90
15765;DHT22;7983;50.744;7.086;2023-07-02T08:06:43;20.50;99.90
15765;DHT22;7983;50.744;7.086;2023-07-02T08:09:11;20.60;99.90
15765;DHT22;7983;50.744;7.086;2023-07-02T08:11:39;20.70;99.90
15765;DHT22;7983;50.744;7.086;2023-07-02T08:14:04;20.70;99.90
15765;DHT22;7983;50.744;7.086;2023-07-02T08:16:35;20.80;99.90
15765;DHT22;7983;50.744;7.086;2023-07-02T08:19:01;20.90;99.90
15765;DHT22;7983;50.744;7.086;2023-07-02T08:21:27;20.90;99.90
15765;DHT22;7983;50.744;7.086;2023-07-02T08:23:54;21.00;99.90
15765;DHT22;7983;50.744;7.086;2023-07-02T08:26:20;21.10;99.90
15765;DHT22;7983;50.744;7.086;2023-07-02T08:28:46;21.10;99.90
15765;DHT22;7983;50.744;7.086;2023-07-02T08:31:11;21.10;99.90
15765;DHT22;7983;50.744;7.086;2023-07-02T08:33:37;21.20;99.90
15765;DHT22;7983;50.744;7.086;2023-07-02T08:36:05;21.20;99.90
15765;DHT22;7983;50.744;7.086;2023-07-02T08:38:33;21.30;99.90
15765;DHT22;7983;50.744;7.086;2023-07-02T08:41:00;21.40;99.90
15765;DHT22;7983;50.744;7.086;2023-07-02T08:43:29;21.40;99.90
15765;DHT22;7983;50.744;7.086;2023-07-02T08:45:57;21.40;99.90
15765;DHT22;7983;50.744;7.086;2023-07-02T08:48:23;21.50;99.90
15765;DHT22;7983;50.744;7.086;2023-07-02T08:50:51;21.50;99.90
15765;DHT22;7983;50.744;7.086;2023-07-02T08:53:17;21.50;99.90
15765;DHT22;7983;50.744;7.086;2023-07-02T08:55:43;21.50;99.90
15765;DHT22;7983;50.744;7.086;2023-07-02T08:58:10;21.50;99.90
15765;DHT22;7983;50.744;7.086;2023-07-02T09:00:36;21.60;99.90
15765;DHT22;7983;50.744;7.086;2023-07-02T09:03:13;21.60;99.90
15765;DHT22;7983;50.744;7.086;2023-07-02T09:05:51;21.70;99.90
15765;DHT22;7983;50.744;7.086;2023-07-02T09:08:29;21.70;99.90
15765;DHT22;7983;50.744;7.086;2023-07-02T09:13:31;21.70;99.90
15765;DHT22;7983;50.744;7.086;2023-07-02T09:15:56;21.70;99.90
15765;DHT22;7983;50.744;7.086;2023-07-02T09:18:22;21.70;99.90
15765;DHT22;7983;50.744;7.086;2023-07-02T09:20:54;21.70;99.90
15765;DHT22;7983;50.744;7.086;2023-07-02T09:23:22;21.60;99.90
15765;DHT22;7983;50.744;7.086;2023-07-02T09:25:50;21.60;99.90
15765;DHT22;7983;50.744;7.086;2023-07-02T09:28:19;21.60;99.90
15765;DHT22;7983;50.744;7.086;2023-07-02T09:30:55;21.60;99.90
15765;DHT22;7983;50.744;7.086;2023-07-02T09:33:24;21.60;99.90
15765;DHT22;7983;50.744;7.086;2023-07-02T09:35:52;21.60;99.90
15765;DHT22;7983;50.744;7.086;2023-07-02T09:38:21;21.60;99.90
15765;DHT22;7983;50.744;7.086;2023-07-02T09:40:53;21.60;99.90
15765;DHT22;7983;50.744;7.086;2023-07-02T09:43:20;21.60;99.90
15765;DHT22;7983;50.744;7.086;2023-07-02T09:45:48;21.70;99.90
15765;DHT22;7983;50.744;7.086;2023-07-02T09:48:16;21.70;99.90
15765;DHT22;7983;50.744;7.086;2023-07-02T09:50:47;21.80;99.90
15765;DHT22;7983;50.744;7.086;2023-07-02T09:53:13;21.90;99.90
15765;DHT22;7983;50.744;7.086;2023-07-02T09:55:41;21.90;99.90
15765;DHT22;7983;50.744;7.086;2023-07-02T09:58:09;22.00;99.90
15765;DHT22;7983;50.744;7.086;2023-07-02T10:00:39;22.00;99.90
15765;DHT22;7983;50.744;7.086;2023-07-02T10:03:05;22.10;99.90
15765;DHT22;7983;50.744;7.086;2023-07-02T10:05:33;22.20;99.90
15765;DHT22;7983;50.744;7.086;2023-07-02T10:08:14;22.40;99.90
15765;DHT22;7983;50.744;7.086;2023-07-02T10:10:42;22.40;99.90
15765;DHT22;7983;50.744;7.086;2023-07-02T10:13:08;22.40;99.90
15765;DHT22;7983;50.744;7.086;2023-07-02T10:15:33;22.50;99.90
15765;DHT22;7983;50.744;7.086;2023-07-02T10:18:05;22.60;99.90
15765;DHT22;7983;50.744;7.086;2023-07-02T10:20:40;22.70;99.90
15765;DHT22;7983;50.744;7.086;2023-07-02T10:23:07;22.90;99.90
15765;DHT22;7983;50.744;7.086;2023-07-02T10:25:36;22.90;99.90
15765;DHT22;7983;50.744;7.086;2023-07-02T10:28:17;22.90;99.90
15765;DHT22;7983;50.744;7.086;2023-07-02T10:30:50;22.90;99.90
15765;DHT22;7983;50.744;7.086;2023-07-02T10:33:18;22.90;99.90
15765;DHT22;7983;50.744;7.086;2023-07-02T10:35:48;22.70;99.90
15765;DHT22;7983;50.744;7.086;2023-07-02T10:38:21;22.70;99.90
15765;DHT22;7983;50.744;7.086;2023-07-02T10:40:53;22.60;99.90
15765;DHT22;7983;50.744;7.086;2023-07-02T10:43:30;22.60;99.90
15765;DHT22;7983;50.744;7.086;2023-07-02T10:45:58;22.60;99.90
15765;DHT22;7983;50.744;7.086;2023-07-02T10:48:25;22.60;99.90
15765;DHT22;7983;50.744;7.086;2023-07-02T10:50:51;22.60;99.90
15765;DHT22;7983;50.744;7.086;2023-07-02T10:53:18;22.60;99.90
15765;DHT22;7983;50.744;7.086;2023-07-02T10:55:44;22.60;99.90
15765;DHT22;7983;50.744;7.086;2023-07-02T10:58:12;22.50;99.90
15765;DHT22;7983;50.744;7.086;2023-07-02T11:00:47;22.50;99.90
15765;DHT22;7983;50.744;7.086;2023-07-02T11:03:21;22.50;99.90
15765;DHT22;7983;50.744;7.086;2023-07-02T11:05:47;22.50;99.90
15765;DHT22;7983;50.744;7.086;2023-07-02T11:08:14;22.50;99.90
15765;DHT22;7983;50.744;7.086;2023-07-02T11:10:42;22.60;99.90
15765;DHT22;7983;50.744;7.086;2023-07-02T11:13:17;22.80;99.90
15765;DHT22;7983;50.744;7.086;2023-07-02T11:15:43;22.90;99.90
15765;DHT22;7983;50.744;7.086;2023-07-02T11:18:13;23.20;99.90
15765;DHT22;7983;50.744;7.086;2023-07-02T11:20:40;23.40;99.90
15765;DHT22;7983;50.744;7.086;2023-07-02T11:23:19;23.70;99.90
15765;DHT22;7983;50.744;7.086;2023-07-02T11:26:00;23.90;99.90
15765;DHT22;7983;50.744;7.086;2023-07-02T11:28:29;24.10;99.90
15765;DHT22;7983;50.744;7.086;2023-07-02T11:30:57;24.10;99.90
15765;DHT22;7983;50.744;7.086;2023-07-02T11:33:36;24.10;99.90
15765;DHT22;7983;50.744;7.086;2023-07-02T11:36:03;24.00;99.90
15765;DHT22;7983;50.744;7.086;2023-07-02T11:38:36;23.80;99.90
15765;DHT22;7983;50.744;7.086;2023-07-02T11:41:05;23.70;99.90
15765;DHT22;7983;50.744;7.086;2023-07-02T11:43:33;23.60;99.90
15765;DHT22;7983;50.744;7.086;2023-07-02T11:45:59;23.60;99.90
15765;DHT22;7983;50.744;7.086;2023-07-02T11:48:25;23.60;99.90
15765;DHT22;7983;50.744;7.086;2023-07-02T11:50:53;23.60;99.90
15765;DHT22;7983;50.744;7.086;2023-07-02T11:53:20;23.60;99.90
15765;DHT22;7983;50.744;7.086;2023-07-02T11:55:49;23.70;99.90
15765;DHT22;7983;50.744;7.086;2023-07-02T11:58:14;23.80;99.90
15765;DHT22;7983;50.744;7.086;2023-07-02T12:00:45;23.90;99.90
15765;DHT22;7983;50.744;7.086;2023-07-02T12:03:12;23.90;99.90
15765;DHT22;7983;50.744;7.086;2023-07-02T12:05:38;24.00;99.90
15765;DHT22;7983;50.744;7.086;2023-07-02T12:08:06;24.10;99.90
15765;DHT22;7983;50.744;7.086;2023-07-02T12:10:31;24.10;99.90
15765;DHT22;7983;50.744;7.086;2023-07-02T12:13:02;24.10;99.90
15765;DHT22;7983;50.744;7.086;2023-07-02T12:15:30;24.10;99.90
15765;DHT22;7983;50.744;7.086;2023-07-02T12:17:58;24.10;99.90
15765;DHT22;7983;50.744;7.086;2023-07-02T12:20:23;24.00;99.90
15765;DHT22;7983;50.744;7.086;2023-07-02T12:22:51;24.00;99.90
15765;DHT22;7983;50.744;7.086;2023-07-02T12:25:17;24.00;99.90
15765;DHT22;7983;50.744;7.086;2023-07-02T12:27:42;24.10;99.90
15765;DHT22;7983;50.744;7.086;2023-07-02T12:30:08;24.10;99.90
15765;DHT22;7983;50.744;7.086;2023-07-02T12:32:34;24.20;99.90
15765;DHT22;7983;50.744;7.086;2023-07-02T12:35:00;24.20;99.90
15765;DHT22;7983;50.744;7.086;2023-07-02T12:37:27;24.30;99.90
15765;DHT22;7983;50.744;7.086;2023-07-02T12:39:53;24.30;99.90
15765;DHT22;7983;50.744;7.086;2023-07-02T12:42:21;24.40;99.90
15765;DHT22;7983;50.744;7.086;2023-07-02T12:44:51;24.40;99.90
15765;DHT22;7983;50.744;7.086;2023-07-02T12:47:19;24.50;99.90
15765;DHT22;7983;50.744;7.086;2023-07-02T12:49:45;24.60;99.90
15765;DHT22;7983;50.744;7.086;2023-07-02T12:52:11;24.70;99.90
15765;DHT22;7983;50.744;7.086;2023-07-02T12:54:37;24.70;99.90
15765;DHT22;7983;50.744;7.086;2023-07-02T12:57:05;24.80;99.90
15765;DHT22;7983;50.744;7.086;2023-07-02T12:59:31;24.80;99.90
15765;DHT22;7983;50.744;7.086;2023-07-02T13:01:56;24.80;99.90
15765;DHT22;7983;50.744;7.086;2023-07-02T13:04:24;24.80;99.90
15765;DHT22;7983;50.744;7.086;2023-07-02T13:06:50;24.80;99.90
15765;DHT22;7983;50.744;7.086;2023-07-02T13:09:17;24.80;99.90
15765;DHT22;7983;50.744;7.086;2023-07-02T13:11:46;24.80;99.90
15765;DHT22;7983;50.744;7.086;2023-07-02T13:14:11;24.90;99.90
15765;DHT22;7983;50.744;7.086;2023-07-02T13:16:39;24.90;99.90
15765;DHT22;7983;50.744;7.086;2023-07-02T13:19:05;25.00;99.90
15765;DHT22;7983;50.744;7.086;2023-07-02T13:21:31;25.10;99.90
15765;DHT22;7983;50.744;7.086;2023-07-02T13:23:58;25.30;99.90
15765;DHT22;7983;50.744;7.086;2023-07-02T13:26:24;25.40;99.90
15765;DHT22;7983;50.744;7.086;2023-07-02T13:28:52;25.40;99.90
15765;DHT22;7983;50.744;7.086;2023-07-02T13:31:18;25.50;99.90
15765;DHT22;7983;50.744;7.086;2023-07-02T13:33:43;25.50;99.90
15765;DHT22;7983;50.744;7.086;2023-07-02T13:36:10;25.60;99.90
15765;DHT22;7983;50.744;7.086;2023-07-02T13:38:38;25.60;99.90
15765;DHT22;7983;50.744;7.086;2023-07-02T13:41:09;25.60;99.90
15765;DHT22;7983;50.744;7.086;2023-07-02T13:43:37;25.70;99.90
15765;DHT22;7983;50.744;7.086;2023-07-02T13:46:05;25.80;99.90
15765;DHT22;7983;50.744;7.086;2023-07-02T13:48:33;25.80;99.90
15765;DHT22;7983;50.744;7.086;2023-07-02T13:51:02;25.90;99.90
15765;DHT22;7983;50.744;7.086;2023-07-02T13:53:30;26.00;99.90
15765;DHT22;7983;50.744;7.086;2023-07-02T13:55:57;26.00;99.90
15765;DHT22;7983;50.744;7.086;2023-07-02T13:58:23;26.00;99.90
15765;DHT22;7983;50.744;7.086;2023-07-02T14:00:51;26.00;99.90
15765;DHT22;7983;50.744;7.086;2023-07-02T14:03:17;25.90;99.90
15765;DHT22;7983;50.744;7.086;2023-07-02T14:05:45;25.80;99.90
15765;DHT22;7983;50.744;7.086;2023-07-02T14:08:10;25.80;99.90
15765;DHT22;7983;50.744;7.086;2023-07-02T14:10:38;25.90;99.90
15765;DHT22;7983;50.744;7.086;2023-07-02T14:13:04;26.10;99.90
15765;DHT22;7983;50.744;7.086;2023-07-02T14:15:30;26.40;99.90
15765;DHT22;7983;50.744;7.086;2023-07-02T14:17:58;26.60;99.90
15765;DHT22;7983;50.744;7.086;2023-07-02T14:20:24;26.70;99.90
15765;DHT22;7983;50.744;7.086;2023-07-02T14:22:50;26.70;99.90
15765;DHT22;7983;50.744;7.086;2023-07-02T14:25:15;26.70;99.90
15765;DHT22;7983;50.744;7.086;2023-07-02T14:27:41;26.60;99.90
15765;DHT22;7983;50.744;7.086;2023-07-02T14:30:09;26.60;99.90
15765;DHT22;7983;50.744;7.086;2023-07-02T14:32:37;26.50;99.60
15765;DHT22;7983;50.744;7.086;2023-07-02T14:35:04;26.50;99.90
15765;DHT22;7983;50.744;7.086;2023-07-02T14:37:30;26.50;99.90
15765;DHT22;7983;50.744;7.086;2023-07-02T14:39:56;26.50;99.90
15765;DHT22;7983;50.744;7.086;2023-07-02T14:42:21;26.60;99.90
15765;DHT22;7983;50.744;7.086;2023-07-02T14:44:47;26.60;99.90
15765;DHT22;7983;50.744;7.086;2023-07-02T14:47:15;26.80;99.90
15765;DHT22;7983;50.744;7.086;2023-07-02T14:49:41;26.80;99.20
15765;DHT22;7983;50.744;7.086;2023-07-02T14:52:11;26.80;98.30
15765;DHT22;7983;50.744;7.086;2023-07-02T14:54:37;26.80;97.30
15765;DHT22;7983;50.744;7.086;2023-07-02T14:57:03;26.70;98.00
15765;DHT22;7983;50.744;7.086;2023-07-02T14:59:32;26.60;98.10
15765;DHT22;7983;50.744;7.086;2023-07-02T15:01:57;26.50;97.60
15765;DHT22;7983;50.744;7.086;2023-07-02T15:04:23;26.40;97.80
15765;DHT22;7983;50.744;7.086;2023-07-02T15:06:48;26.30;97.90
15765;DHT22;7983;50.744;7.086;2023-07-02T15:09:16;26.30;98.10
15765;DHT22;7983;50.744;7.086;2023-07-02T15:11:43;26.20;97.90
15765;DHT22;7983;50.744;7.086;2023-07-02T15:14:11;26.20;98.30
15765;DHT22;7983;50.744;7.086;2023-07-02T15:16:37;26.20;97.70
15765;DHT22;7983;50.744;7.086;2023-07-02T15:19:02;26.20;98.00
15765;DHT22;7983;50.744;7.086;2023-07-02T15:21:28;26.30;98.10
15765;DHT22;7983;50.744;7.086;2023-07-02T15:23:56;26.30;97.90
15765;DHT22;7983;50.744;7.086;2023-07-02T15:26:24;26.30;97.50
15765;DHT22;7983;50.744;7.086;2023-07-02T15:28:50;26.30;96.30
15765;DHT22;7983;50.744;7.086;2023-07-02T15:31:18;26.20;96.30
15765;DHT22;7983;50.744;7.086;2023-07-02T15:33:44;26.20;96.20
15765;DHT22;7983;50.744;7.086;2023-07-02T15:36:12;26.10;97.00
15765;DHT22;7983;50.744;7.086;2023-07-02T15:38:42;26.10;97.40
15765;DHT22;7983;50.744;7.086;2023-07-02T15:41:12;26.20;97.90
15765;DHT22;7983;50.744;7.086;2023-07-02T15:43:40;26.20;96.90
15765;DHT22;7983;50.744;7.086;2023-07-02T15:46:06;26.30;97.20
15765;DHT22;7983;50.744;7.086;2023-07-02T15:48:32;26.40;97.90
15765;DHT22;7983;50.744;7.086;2023-07-02T15:50:57;26.60;98.30
15765;DHT22;7983;50.744;7.086;2023-07-02T15:53:23;26.80;98.20
15765;DHT22;7983;50.744;7.086;2023-07-02T15:55:57;26.90;98.00